sensor_id;sensor_type;location;lat;lon;timestamp;P1;durP1;ratioP1;P2;durP2;ratioP2
62654;SDS011;48717;55.556;37.816;2022-08-01T00:00:49;15.13;;;8.45;;
62654;SDS011;48717;55.556;37.816;2022-08-01T00:03:17;12.68;;;7.68;;
62654;SDS011;48717;55.556;37.816;2022-08-01T00:05:57;14.52;;;7.45;;
62654;SDS011;48717;55.556;37.816;2022-08-01T00:09:04;12.60;;;7.90;;
62654;SDS011;48717;55.556;37.816;2022-08-01T00:11:55;14.38;;;8.23;;
62654;SDS011;48717;55.556;37.816;2022-08-01T00:14:31;13.75;;;8.25;;
62654;SDS011;48717;55.556;37.816;2022-08-01T00:16:59;12.77;;;8.80;;
62654;SDS011;48717;55.556;37.816;2022-08-01T00:19:33;17.67;;;7.97;;
62654;SDS011;48717;55.556;37.816;2022-08-01T00:22:00;10.52;;;7.43;;
62654;SDS011;48717;55.556;37.816;2022-08-01T00:24:28;14.88;;;8.35;;
62654;SDS011;48717;55.556;37.816;2022-08-01T00:26:58;11.73;;;7.75;;
62654;SDS011;48717;55.556;37.816;2022-08-01T00:29:26;13.00;;;7.55;;
62654;SDS011;48717;55.556;37.816;2022-08-01T00:32:13;9.93;;;7.35;;
62654;SDS011;48717;55.556;37.816;2022-08-01T00:34:40;13.57;;;7.60;;
62654;SDS011;48717;55.556;37.816;2022-08-01T00:37:08;11.80;;;7.28;;
62654;SDS011;48717;55.556;37.816;2022-08-01T00:39:42;14.80;;;7.15;;
62654;SDS011;48717;55.556;37.816;2022-08-01T00:42:09;11.43;;;7.50;;
62654;SDS011;48717;55.556;37.816;2022-08-01T00:44:38;11.80;;;7.32;;
62654;SDS011;48717;55.556;37.816;2022-08-01T00:47:06;12.48;;;6.90;;
62654;SDS011;48717;55.556;37.816;2022-08-01T00:49:34;11.60;;;7.03;;
62654;SDS011;48717;55.556;37.816;2022-08-01T00:52:02;11.43;;;7.30;;
62654;SDS011;48717;55.556;37.816;2022-08-01T00:54:32;11.02;;;6.68;;
62654;SDS011;48717;55.556;37.816;2022-08-01T00:56:59;13.13;;;7.60;;
62654;SDS011;48717;55.556;37.816;2022-08-01T00:59:27;14.88;;;7.60;;
62654;SDS011;48717;55.556;37.816;2022-08-01T01:01:54;14.27;;;8.27;;
62654;SDS011;48717;55.556;37.816;2022-08-01T01:04:22;15.23;;;9.00;;
62654;SDS011;48717;55.556;37.816;2022-08-01T01:20:26;11.60;;;8.25;;
62654;SDS011;48717;55.556;37.816;2022-08-01T01:28:51;12.63;;;8.52;;
62654;SDS011;48717;55.556;37.816;2022-08-01T01:31:23;16.08;;;9.38;;
62654;SDS011;48717;55.556;37.816;2022-08-01T01:33:51;15.85;;;9.10;;
62654;SDS011;48717;55.556;37.816;2022-08-01T01:36:21;13.18;;;8.70;;
62654;SDS011;48717;55.556;37.816;2022-08-01T01:38:50;15.73;;;9.93;;
62654;SDS011;48717;55.556;37.816;2022-08-01T01:41:19;14.88;;;9.73;;
62654;SDS011;48717;55.556;37.816;2022-08-01T01:43:47;19.17;;;10.27;;
62654;SDS011;48717;55.556;37.816;2022-08-01T01:46:17;14.03;;;10.40;;
62654;SDS011;48717;55.556;37.816;2022-08-01T01:48:49;16.42;;;11.00;;
62654;SDS011;48717;55.556;37.816;2022-08-01T01:51:18;18.00;;;10.80;;
62654;SDS011;48717;55.556;37.816;2022-08-01T01:56:16;19.73;;;11.82;;
62654;SDS011;48717;55.556;37.816;2022-08-01T01:58:48;17.13;;;11.20;;
62654;SDS011;48717;55.556;37.816;2022-08-01T02:01:19;19.35;;;11.68;;
62654;SDS011;48717;55.556;37.816;2022-08-01T02:04:10;16.45;;;11.27;;
62654;SDS011;48717;55.556;37.816;2022-08-01T02:06:39;18.60;;;11.60;;
62654;SDS011;48717;55.556;37.816;2022-08-01T02:09:07;16.50;;;11.63;;
62654;SDS011;48717;55.556;37.816;2022-08-01T02:11:37;16.02;;;11.05;;
62654;SDS011;48717;55.556;37.816;2022-08-01T02:14:25;18.17;;;10.77;;
62654;SDS011;48717;55.556;37.816;2022-08-01T02:16:53;17.52;;;9.90;;
62654;SDS011;48717;55.556;37.816;2022-08-01T02:19:24;17.15;;;10.60;;
62654;SDS011;48717;55.556;37.816;2022-08-01T02:21:57;16.55;;;10.07;;
62654;SDS011;48717;55.556;37.816;2022-08-01T02:24:33;15.07;;;10.05;;
62654;SDS011;48717;55.556;37.816;2022-08-01T02:27:11;17.23;;;9.75;;
62654;SDS011;48717;55.556;37.816;2022-08-01T02:29:52;13.82;;;9.65;;
62654;SDS011;48717;55.556;37.816;2022-08-01T02:32:26;14.90;;;9.30;;
62654;SDS011;48717;55.556;37.816;2022-08-01T02:35:02;13.18;;;8.18;;
62654;SDS011;48717;55.556;37.816;2022-08-01T02:37:34;18.50;;;9.20;;
62654;SDS011;48717;55.556;37.816;2022-08-01T02:40:09;15.15;;;9.70;;
62654;SDS011;48717;55.556;37.816;2022-08-01T02:42:41;14.65;;;9.23;;
62654;SDS011;48717;55.556;37.816;2022-08-01T02:45:12;16.52;;;9.50;;
62654;SDS011;48717;55.556;37.816;2022-08-01T02:47:40;16.63;;;10.25;;
62654;SDS011;48717;55.556;37.816;2022-08-01T02:50:35;12.55;;;10.23;;
62654;SDS011;48717;55.556;37.816;2022-08-01T02:53:05;14.27;;;9.85;;
62654;SDS011;48717;55.556;37.816;2022-08-01T02:55:34;16.63;;;9.95;;
62654;SDS011;48717;55.556;37.816;2022-08-01T03:00:34;19.60;;;10.38;;
62654;SDS011;48717;55.556;37.816;2022-08-01T03:03:03;16.65;;;9.27;;
62654;SDS011;48717;55.556;37.816;2022-08-01T03:05:33;18.00;;;10.00;;
62654;SDS011;48717;55.556;37.816;2022-08-01T03:08:02;15.77;;;10.07;;
62654;SDS011;48717;55.556;37.816;2022-08-01T03:10:40;15.13;;;8.98;;
62654;SDS011;48717;55.556;37.816;2022-08-01T03:13:11;19.33;;;10.63;;
62654;SDS011;48717;55.556;37.816;2022-08-01T03:16:50;26.15;;;11.20;;
62654;SDS011;48717;55.556;37.816;2022-08-01T03:19:19;18.67;;;10.23;;
62654;SDS011;48717;55.556;37.816;2022-08-01T03:21:50;14.20;;;8.75;;
62654;SDS011;48717;55.556;37.816;2022-08-01T03:24:38;17.55;;;9.18;;
62654;SDS011;48717;55.556;37.816;2022-08-01T03:27:19;16.52;;;9.80;;
62654;SDS011;48717;55.556;37.816;2022-08-01T03:29:49;19.45;;;10.43;;
62654;SDS011;48717;55.556;37.816;2022-08-01T03:32:18;18.05;;;9.43;;
62654;SDS011;48717;55.556;37.816;2022-08-01T03:34:48;16.75;;;9.05;;
62654;SDS011;48717;55.556;37.816;2022-08-01T03:37:38;16.75;;;10.13;;
62654;SDS011;48717;55.556;37.816;2022-08-01T03:43:32;18.17;;;10.68;;
62654;SDS011;48717;55.556;37.816;2022-08-01T03:46:05;18.70;;;10.05;;
62654;SDS011;48717;55.556;37.816;2022-08-01T03:48:35;18.00;;;10.48;;
62654;SDS011;48717;55.556;37.816;2022-08-01T03:51:06;22.40;;;10.20;;
62654;SDS011;48717;55.556;37.816;2022-08-01T03:53:34;18.42;;;10.82;;
62654;SDS011;48717;55.556;37.816;2022-08-01T03:56:08;19.70;;;10.43;;
62654;SDS011;48717;55.556;37.816;2022-08-01T03:58:38;20.15;;;11.20;;
62654;SDS011;48717;55.556;37.816;2022-08-01T04:01:07;22.55;;;10.63;;
62654;SDS011;48717;55.556;37.816;2022-08-01T04:03:42;23.70;;;9.50;;
62654;SDS011;48717;55.556;37.816;2022-08-01T04:06:10;20.75;;;8.80;;
62654;SDS011;48717;55.556;37.816;2022-08-01T04:08:38;35.47;;;20.23;;
62654;SDS011;48717;55.556;37.816;2022-08-01T04:11:07;19.47;;;9.63;;
62654;SDS011;48717;55.556;37.816;2022-08-01T04:13:35;22.95;;;9.25;;
62654;SDS011;48717;55.556;37.816;2022-08-01T04:16:04;26.40;;;9.55;;
62654;SDS011;48717;55.556;37.816;2022-08-01T04:18:31;21.17;;;10.73;;
62654;SDS011;48717;55.556;37.816;2022-08-01T04:20:58;23.05;;;10.00;;
62654;SDS011;48717;55.556;37.816;2022-08-01T04:23:26;27.55;;;16.63;;
62654;SDS011;48717;55.556;37.816;2022-08-01T04:25:56;34.92;;;20.52;;
62654;SDS011;48717;55.556;37.816;2022-08-01T04:28:25;24.58;;;10.70;;
62654;SDS011;48717;55.556;37.816;2022-08-01T04:30:55;29.60;;;14.93;;
62654;SDS011;48717;55.556;37.816;2022-08-01T04:33:28;18.98;;;11.40;;
62654;SDS011;48717;55.556;37.816;2022-08-01T04:35:58;20.83;;;11.50;;
62654;SDS011;48717;55.556;37.816;2022-08-01T04:38:32;25.40;;;8.60;;
62654;SDS011;48717;55.556;37.816;2022-08-01T04:41:00;11.40;;;5.40;;
62654;SDS011;48717;55.556;37.816;2022-08-01T04:43:37;14.15;;;7.57;;
62654;SDS011;48717;55.556;37.816;2022-08-01T04:46:05;62.70;;;42.85;;
62654;SDS011;48717;55.556;37.816;2022-08-01T04:48:34;19.65;;;8.32;;
62654;SDS011;48717;55.556;37.816;2022-08-01T04:51:04;16.20;;;8.40;;
62654;SDS011;48717;55.556;37.816;2022-08-01T04:53:37;12.48;;;6.47;;
62654;SDS011;48717;55.556;37.816;2022-08-01T04:56:05;25.85;;;9.50;;
62654;SDS011;48717;55.556;37.816;2022-08-01T04:58:32;14.65;;;7.10;;
62654;SDS011;48717;55.556;37.816;2022-08-01T05:00:59;26.55;;;5.97;;
62654;SDS011;48717;55.556;37.816;2022-08-01T05:03:27;11.32;;;5.10;;
62654;SDS011;48717;55.556;37.816;2022-08-01T05:05:54;18.00;;;5.93;;
62654;SDS011;48717;55.556;37.816;2022-08-01T05:08:21;11.48;;;5.38;;
62654;SDS011;48717;55.556;37.816;2022-08-01T05:10:58;15.30;;;4.38;;
62654;SDS011;48717;55.556;37.816;2022-08-01T05:13:25;8.05;;;4.53;;
62654;SDS011;48717;55.556;37.816;2022-08-01T05:15:52;11.13;;;4.45;;
62654;SDS011;48717;55.556;37.816;2022-08-01T05:18:19;8.85;;;4.53;;
62654;SDS011;48717;55.556;37.816;2022-08-01T05:20:54;8.65;;;4.85;;
62654;SDS011;48717;55.556;37.816;2022-08-01T05:23:21;11.48;;;4.72;;
62654;SDS011;48717;55.556;37.816;2022-08-01T05:26:09;8.50;;;4.10;;
62654;SDS011;48717;55.556;37.816;2022-08-01T05:28:40;10.63;;;4.28;;
62654;SDS011;48717;55.556;37.816;2022-08-01T05:31:08;10.10;;;4.75;;
62654;SDS011;48717;55.556;37.816;2022-08-01T05:33:35;9.60;;;3.78;;
62654;SDS011;48717;55.556;37.816;2022-08-01T05:36:02;9.50;;;3.90;;
62654;SDS011;48717;55.556;37.816;2022-08-01T05:38:30;10.60;;;3.90;;
62654;SDS011;48717;55.556;37.816;2022-08-01T05:40:57;12.95;;;3.75;;
62654;SDS011;48717;55.556;37.816;2022-08-01T05:43:24;6.38;;;3.90;;
62654;SDS011;48717;55.556;37.816;2022-08-01T05:45:54;5.72;;;3.42;;
62654;SDS011;48717;55.556;37.816;2022-08-01T05:48:23;5.00;;;3.50;;
62654;SDS011;48717;55.556;37.816;2022-08-01T05:50:50;7.20;;;3.50;;
62654;SDS011;48717;55.556;37.816;2022-08-01T05:53:23;12.75;;;3.67;;
62654;SDS011;48717;55.556;37.816;2022-08-01T05:55:51;4.90;;;3.20;;
62654;SDS011;48717;55.556;37.816;2022-08-01T05:58:18;9.73;;;3.17;;
62654;SDS011;48717;55.556;37.816;2022-08-01T06:00:45;7.25;;;3.28;;
62654;SDS011;48717;55.556;37.816;2022-08-01T06:03:12;7.85;;;3.42;;
62654;SDS011;48717;55.556;37.816;2022-08-01T06:05:40;5.68;;;2.63;;
62654;SDS011;48717;55.556;37.816;2022-08-01T06:08:08;8.20;;;3.47;;
62654;SDS011;48717;55.556;37.816;2022-08-01T06:10:35;6.10;;;3.13;;
62654;SDS011;48717;55.556;37.816;2022-08-01T06:13:02;7.40;;;3.10;;
62654;SDS011;48717;55.556;37.816;2022-08-01T06:15:30;7.97;;;3.95;;
62654;SDS011;48717;55.556;37.816;2022-08-01T06:17:58;7.28;;;3.83;;
62654;SDS011;48717;55.556;37.816;2022-08-01T06:20:26;8.02;;;4.20;;
62654;SDS011;48717;55.556;37.816;2022-08-01T06:22:53;8.07;;;4.53;;
62654;SDS011;48717;55.556;37.816;2022-08-01T06:25:21;5.38;;;4.50;;
62654;SDS011;48717;55.556;37.816;2022-08-01T06:27:49;10.05;;;4.22;;
62654;SDS011;48717;55.556;37.816;2022-08-01T06:30:16;9.60;;;4.28;;
62654;SDS011;48717;55.556;37.816;2022-08-01T06:32:43;5.75;;;4.10;;
62654;SDS011;48717;55.556;37.816;2022-08-01T06:35:10;7.65;;;3.95;;
62654;SDS011;48717;55.556;37.816;2022-08-01T06:37:38;6.30;;;4.15;;
62654;SDS011;48717;55.556;37.816;2022-08-01T06:40:06;5.25;;;3.70;;
62654;SDS011;48717;55.556;37.816;2022-08-01T06:42:42;6.30;;;3.63;;
62654;SDS011;48717;55.556;37.816;2022-08-01T06:47:39;4.28;;;3.25;;
62654;SDS011;48717;55.556;37.816;2022-08-01T06:50:08;5.43;;;3.10;;
62654;SDS011;48717;55.556;37.816;2022-08-01T06:52:37;3.70;;;2.75;;
62654;SDS011;48717;55.556;37.816;2022-08-01T06:55:04;4.18;;;2.55;;
62654;SDS011;48717;55.556;37.816;2022-08-01T06:57:32;4.53;;;2.60;;
62654;SDS011;48717;55.556;37.816;2022-08-01T07:00:04;3.03;;;2.45;;
62654;SDS011;48717;55.556;37.816;2022-08-01T07:02:35;3.35;;;2.33;;
62654;SDS011;48717;55.556;37.816;2022-08-01T07:05:03;2.55;;;2.10;;
62654;SDS011;48717;55.556;37.816;2022-08-01T07:07:31;3.90;;;2.20;;
62654;SDS011;48717;55.556;37.816;2022-08-01T07:09:58;2.55;;;2.30;;
62654;SDS011;48717;55.556;37.816;2022-08-01T07:12:25;2.40;;;2.20;;
62654;SDS011;48717;55.556;37.816;2022-08-01T07:14:52;2.83;;;2.40;;
62654;SDS011;48717;55.556;37.816;2022-08-01T07:17:19;4.18;;;2.28;;
62654;SDS011;48717;55.556;37.816;2022-08-01T07:19:47;4.45;;;2.20;;
62654;SDS011;48717;55.556;37.816;2022-08-01T07:22:14;3.40;;;1.90;;
62654;SDS011;48717;55.556;37.816;2022-08-01T07:24:49;3.15;;;2.30;;
62654;SDS011;48717;55.556;37.816;2022-08-01T07:27:20;4.53;;;2.17;;
62654;SDS011;48717;55.556;37.816;2022-08-01T07:29:51;7.93;;;2.22;;
62654;SDS011;48717;55.556;37.816;2022-08-01T07:32:19;6.18;;;2.47;;
62654;SDS011;48717;55.556;37.816;2022-08-01T07:34:46;2.47;;;2.05;;
62654;SDS011;48717;55.556;37.816;2022-08-01T07:37:13;4.45;;;2.25;;
62654;SDS011;48717;55.556;37.816;2022-08-01T07:39:41;4.47;;;2.45;;
62654;SDS011;48717;55.556;37.816;2022-08-01T07:42:08;6.88;;;2.00;;
62654;SDS011;48717;55.556;37.816;2022-08-01T07:44:35;4.97;;;2.10;;
62654;SDS011;48717;55.556;37.816;2022-08-01T07:47:03;2.53;;;1.95;;
62654;SDS011;48717;55.556;37.816;2022-08-01T07:49:31;5.25;;;2.40;;
62654;SDS011;48717;55.556;37.816;2022-08-01T07:52:05;3.10;;;1.80;;
62654;SDS011;48717;55.556;37.816;2022-08-01T07:54:32;4.60;;;2.03;;
62654;SDS011;48717;55.556;37.816;2022-08-01T07:57:01;3.63;;;2.00;;
62654;SDS011;48717;55.556;37.816;2022-08-01T07:59:29;2.20;;;2.00;;
62654;SDS011;48717;55.556;37.816;2022-08-01T08:01:56;3.40;;;2.13;;
62654;SDS011;48717;55.556;37.816;2022-08-01T08:04:24;2.85;;;1.98;;
62654;SDS011;48717;55.556;37.816;2022-08-01T08:06:51;3.20;;;2.10;;
62654;SDS011;48717;55.556;37.816;2022-08-01T08:09:20;2.58;;;2.38;;
62654;SDS011;48717;55.556;37.816;2022-08-01T08:11:47;3.33;;;2.20;;
62654;SDS011;48717;55.556;37.816;2022-08-01T08:14:15;2.53;;;2.00;;
62654;SDS011;48717;55.556;37.816;2022-08-01T08:16:43;3.65;;;2.10;;
62654;SDS011;48717;55.556;37.816;2022-08-01T08:19:10;3.90;;;2.20;;
62654;SDS011;48717;55.556;37.816;2022-08-01T08:21:38;2.40;;;2.10;;
62654;SDS011;48717;55.556;37.816;2022-08-01T08:24:05;2.72;;;1.92;;
62654;SDS011;48717;55.556;37.816;2022-08-01T08:26:54;4.40;;;1.90;;
62654;SDS011;48717;55.556;37.816;2022-08-01T08:29:23;7.00;;;1.90;;
62654;SDS011;48717;55.556;37.816;2022-08-01T08:31:54;4.63;;;2.08;;
62654;SDS011;48717;55.556;37.816;2022-08-01T08:34:29;4.03;;;2.13;;
62654;SDS011;48717;55.556;37.816;2022-08-01T08:36:57;3.35;;;2.20;;
62654;SDS011;48717;55.556;37.816;2022-08-01T08:39:25;3.03;;;2.20;;
62654;SDS011;48717;55.556;37.816;2022-08-01T08:41:52;3.75;;;2.10;;
62654;SDS011;48717;55.556;37.816;2022-08-01T08:44:19;3.20;;;2.28;;
62654;SDS011;48717;55.556;37.816;2022-08-01T08:46:48;2.90;;;2.08;;
62654;SDS011;48717;55.556;37.816;2022-08-01T08:49:26;4.28;;;2.35;;
62654;SDS011;48717;55.556;37.816;2022-08-01T08:52:02;3.72;;;2.63;;
62654;SDS011;48717;55.556;37.816;2022-08-01T08:54:34;6.40;;;5.03;;
62654;SDS011;48717;55.556;37.816;2022-08-01T08:57:04;7.63;;;2.00;;
62654;SDS011;48717;55.556;37.816;2022-08-01T08:59:32;3.45;;;2.55;;
62654;SDS011;48717;55.556;37.816;2022-08-01T09:02:00;3.20;;;1.88;;
62654;SDS011;48717;55.556;37.816;2022-08-01T09:04:27;3.30;;;2.30;;
62654;SDS011;48717;55.556;37.816;2022-08-01T09:06:54;4.20;;;2.15;;
62654;SDS011;48717;55.556;37.816;2022-08-01T09:09:22;7.72;;;2.50;;
62654;SDS011;48717;55.556;37.816;2022-08-01T09:11:50;3.78;;;2.20;;
62654;SDS011;48717;55.556;37.816;2022-08-01T09:14:23;3.17;;;2.08;;
62654;SDS011;48717;55.556;37.816;2022-08-01T09:19:36;4.15;;;1.90;;
62654;SDS011;48717;55.556;37.816;2022-08-01T09:22:13;3.88;;;2.13;;
62654;SDS011;48717;55.556;37.816;2022-08-01T09:27:32;2.72;;;1.90;;
62654;SDS011;48717;55.556;37.816;2022-08-01T09:30:08;4.63;;;2.17;;
62654;SDS011;48717;55.556;37.816;2022-08-01T09:32:54;6.43;;;2.70;;
62654;SDS011;48717;55.556;37.816;2022-08-01T09:35:27;3.67;;;2.35;;
62654;SDS011;48717;55.556;37.816;2022-08-01T09:38:11;5.53;;;2.00;;
62654;SDS011;48717;55.556;37.816;2022-08-01T09:40:56;4.18;;;2.00;;
62654;SDS011;48717;55.556;37.816;2022-08-01T09:43:26;6.20;;;2.30;;
62654;SDS011;48717;55.556;37.816;2022-08-01T09:45:57;3.90;;;2.03;;
62654;SDS011;48717;55.556;37.816;2022-08-01T09:48:25;2.63;;;2.10;;
62654;SDS011;48717;55.556;37.816;2022-08-01T09:50:56;2.13;;;1.90;;
62654;SDS011;48717;55.556;37.816;2022-08-01T09:53:42;4.70;;;1.95;;
62654;SDS011;48717;55.556;37.816;2022-08-01T09:56:17;2.03;;;1.70;;
62654;SDS011;48717;55.556;37.816;2022-08-01T09:58:55;4.18;;;1.75;;
62654;SDS011;48717;55.556;37.816;2022-08-01T10:01:47;6.45;;;1.88;;
62654;SDS011;48717;55.556;37.816;2022-08-01T10:04:19;5.20;;;1.70;;
62654;SDS011;48717;55.556;37.816;2022-08-01T10:06:48;5.00;;;1.67;;
62654;SDS011;48717;55.556;37.816;2022-08-01T10:09:31;4.90;;;1.95;;
62654;SDS011;48717;55.556;37.816;2022-08-01T10:12:06;3.60;;;1.90;;
62654;SDS011;48717;55.556;37.816;2022-08-01T10:14:34;4.03;;;2.37;;
62654;SDS011;48717;55.556;37.816;2022-08-01T10:17:07;3.47;;;2.05;;
62654;SDS011;48717;55.556;37.816;2022-08-01T10:19:44;3.33;;;1.88;;
62654;SDS011;48717;55.556;37.816;2022-08-01T10:22:12;2.15;;;1.70;;
62654;SDS011;48717;55.556;37.816;2022-08-01T10:24:44;5.40;;;2.00;;
62654;SDS011;48717;55.556;37.816;2022-08-01T10:27:15;3.05;;;1.63;;
62654;SDS011;48717;55.556;37.816;2022-08-01T10:29:51;3.15;;;1.70;;
62654;SDS011;48717;55.556;37.816;2022-08-01T10:32:34;21.40;;;16.73;;
62654;SDS011;48717;55.556;37.816;2022-08-01T10:35:05;1.83;;;1.70;;
62654;SDS011;48717;55.556;37.816;2022-08-01T10:37:41;7.65;;;1.98;;
62654;SDS011;48717;55.556;37.816;2022-08-01T10:40:18;3.85;;;2.15;;
62654;SDS011;48717;55.556;37.816;2022-08-01T10:43:02;2.85;;;1.73;;
62654;SDS011;48717;55.556;37.816;2022-08-01T10:45:30;4.47;;;1.80;;
62654;SDS011;48717;55.556;37.816;2022-08-01T10:50:41;3.85;;;2.08;;
62654;SDS011;48717;55.556;37.816;2022-08-01T10:53:18;8.13;;;2.15;;
62654;SDS011;48717;55.556;37.816;2022-08-01T10:58:25;5.15;;;1.70;;
62654;SDS011;48717;55.556;37.816;2022-08-01T11:03:43;2.58;;;1.63;;
62654;SDS011;48717;55.556;37.816;2022-08-01T11:09:02;9.02;;;2.08;;
62654;SDS011;48717;55.556;37.816;2022-08-01T11:11:31;2.10;;;1.83;;
62654;SDS011;48717;55.556;37.816;2022-08-01T11:14:03;3.60;;;1.90;;
62654;SDS011;48717;55.556;37.816;2022-08-01T11:16:38;5.03;;;1.85;;
62654;SDS011;48717;55.556;37.816;2022-08-01T11:19:07;1.70;;;1.60;;
62654;SDS011;48717;55.556;37.816;2022-08-01T11:27:20;6.63;;;2.30;;
62654;SDS011;48717;55.556;37.816;2022-08-01T11:32:49;11.45;;;2.00;;
62654;SDS011;48717;55.556;37.816;2022-08-01T11:35:38;3.60;;;1.63;;
62654;SDS011;48717;55.556;37.816;2022-08-01T11:38:37;4.07;;;2.25;;
62654;SDS011;48717;55.556;37.816;2022-08-01T11:57:28;3.95;;;2.05;;
62654;SDS011;48717;55.556;37.816;2022-08-01T12:00:01;3.30;;;1.80;;
62654;SDS011;48717;55.556;37.816;2022-08-01T12:02:41;7.70;;;1.90;;
62654;SDS011;48717;55.556;37.816;2022-08-01T12:05:12;5.68;;;2.00;;
62654;SDS011;48717;55.556;37.816;2022-08-01T12:07:42;7.50;;;2.10;;
62654;SDS011;48717;55.556;37.816;2022-08-01T12:10:11;5.40;;;1.98;;
62654;SDS011;48717;55.556;37.816;2022-08-01T12:12:46;3.70;;;1.70;;
62654;SDS011;48717;55.556;37.816;2022-08-01T12:15:13;4.47;;;2.15;;
62654;SDS011;48717;55.556;37.816;2022-08-01T12:17:42;6.40;;;2.27;;
62654;SDS011;48717;55.556;37.816;2022-08-01T12:20:29;5.28;;;2.03;;
62654;SDS011;48717;55.556;37.816;2022-08-01T12:23:03;3.25;;;1.95;;
62654;SDS011;48717;55.556;37.816;2022-08-01T12:25:35;2.20;;;2.00;;
62654;SDS011;48717;55.556;37.816;2022-08-01T12:28:10;3.97;;;1.80;;
62654;SDS011;48717;55.556;37.816;2022-08-01T12:31:13;3.53;;;1.90;;
62654;SDS011;48717;55.556;37.816;2022-08-01T12:33:40;4.40;;;2.00;;
62654;SDS011;48717;55.556;37.816;2022-08-01T12:36:07;3.38;;;1.80;;
62654;SDS011;48717;55.556;37.816;2022-08-01T12:38:40;5.03;;;2.10;;
62654;SDS011;48717;55.556;37.816;2022-08-01T12:41:09;2.95;;;1.80;;
62654;SDS011;48717;55.556;37.816;2022-08-01T12:43:37;7.18;;;2.05;;
62654;SDS011;48717;55.556;37.816;2022-08-01T12:46:04;7.43;;;2.28;;
62654;SDS011;48717;55.556;37.816;2022-08-01T12:48:31;3.78;;;1.70;;
62654;SDS011;48717;55.556;37.816;2022-08-01T12:50:59;15.35;;;2.63;;
62654;SDS011;48717;55.556;37.816;2022-08-01T12:53:32;2.25;;;1.70;;
62654;SDS011;48717;55.556;37.816;2022-08-01T12:56:07;8.53;;;2.00;;
62654;SDS011;48717;55.556;37.816;2022-08-01T12:58:37;3.42;;;2.30;;
62654;SDS011;48717;55.556;37.816;2022-08-01T13:01:05;3.15;;;1.65;;
62654;SDS011;48717;55.556;37.816;2022-08-01T13:03:34;2.28;;;1.80;;
62654;SDS011;48717;55.556;37.816;2022-08-01T13:06:05;8.02;;;2.20;;
62654;SDS011;48717;55.556;37.816;2022-08-01T13:08:37;3.42;;;1.83;;
62654;SDS011;48717;55.556;37.816;2022-08-01T13:11:06;4.50;;;2.00;;
62654;SDS011;48717;55.556;37.816;2022-08-01T13:16:16;2.65;;;1.83;;
62654;SDS011;48717;55.556;37.816;2022-08-01T13:19:04;3.72;;;2.15;;
62654;SDS011;48717;55.556;37.816;2022-08-01T13:21:33;1.92;;;1.70;;
62654;SDS011;48717;55.556;37.816;2022-08-01T13:24:27;3.50;;;2.47;;
62654;SDS011;48717;55.556;37.816;2022-08-01T13:26:56;6.85;;;2.33;;
62654;SDS011;48717;55.556;37.816;2022-08-01T13:29:31;8.52;;;1.83;;
62654;SDS011;48717;55.556;37.816;2022-08-01T13:32:11;4.70;;;2.00;;
62654;SDS011;48717;55.556;37.816;2022-08-01T13:35:00;4.20;;;2.78;;
62654;SDS011;48717;55.556;37.816;2022-08-01T13:37:29;5.40;;;2.25;;
62654;SDS011;48717;55.556;37.816;2022-08-01T13:39:57;3.95;;;1.90;;
62654;SDS011;48717;55.556;37.816;2022-08-01T13:42:25;4.07;;;2.13;;
62654;SDS011;48717;55.556;37.816;2022-08-01T13:44:52;2.35;;;1.88;;
62654;SDS011;48717;55.556;37.816;2022-08-01T13:47:19;8.90;;;2.72;;
62654;SDS011;48717;55.556;37.816;2022-08-01T13:49:58;3.10;;;2.00;;
62654;SDS011;48717;55.556;37.816;2022-08-01T13:52:29;6.93;;;2.20;;
62654;SDS011;48717;55.556;37.816;2022-08-01T13:54:57;6.68;;;1.80;;
62654;SDS011;48717;55.556;37.816;2022-08-01T13:57:25;4.88;;;1.70;;
62654;SDS011;48717;55.556;37.816;2022-08-01T14:00:04;3.10;;;2.20;;
62654;SDS011;48717;55.556;37.816;2022-08-01T14:02:37;8.43;;;2.13;;
62654;SDS011;48717;55.556;37.816;2022-08-01T14:05:04;4.82;;;1.98;;
62654;SDS011;48717;55.556;37.816;2022-08-01T14:07:32;3.72;;;2.10;;
62654;SDS011;48717;55.556;37.816;2022-08-01T14:09:59;2.05;;;1.60;;
62654;SDS011;48717;55.556;37.816;2022-08-01T14:12:46;4.53;;;1.90;;
62654;SDS011;48717;55.556;37.816;2022-08-01T14:15:15;2.85;;;1.58;;
62654;SDS011;48717;55.556;37.816;2022-08-01T14:18:02;2.70;;;1.98;;
62654;SDS011;48717;55.556;37.816;2022-08-01T14:20:31;3.40;;;2.30;;
62654;SDS011;48717;55.556;37.816;2022-08-01T14:22:59;5.28;;;3.63;;
62654;SDS011;48717;55.556;37.816;2022-08-01T14:25:26;4.55;;;2.90;;
62654;SDS011;48717;55.556;37.816;2022-08-01T14:28:13;3.15;;;2.65;;
62654;SDS011;48717;55.556;37.816;2022-08-01T14:30:41;6.57;;;2.85;;
62654;SDS011;48717;55.556;37.816;2022-08-01T14:33:09;10.55;;;2.97;;
62654;SDS011;48717;55.556;37.816;2022-08-01T14:35:38;8.80;;;2.83;;
62654;SDS011;48717;55.556;37.816;2022-08-01T14:38:25;9.38;;;2.80;;
62654;SDS011;48717;55.556;37.816;2022-08-01T14:40:59;5.72;;;3.65;;
62654;SDS011;48717;55.556;37.816;2022-08-01T14:43:27;13.02;;;4.30;;
62654;SDS011;48717;55.556;37.816;2022-08-01T14:45:59;5.07;;;2.33;;
62654;SDS011;48717;55.556;37.816;2022-08-01T14:48:27;10.65;;;2.72;;
62654;SDS011;48717;55.556;37.816;2022-08-01T14:50:56;8.00;;;2.90;;
62654;SDS011;48717;55.556;37.816;2022-08-01T14:53:24;9.73;;;3.08;;
62654;SDS011;48717;55.556;37.816;2022-08-01T14:55:51;4.85;;;2.50;;
62654;SDS011;48717;55.556;37.816;2022-08-01T14:58:18;5.30;;;2.28;;
62654;SDS011;48717;55.556;37.816;2022-08-01T15:00:45;6.53;;;3.00;;
62654;SDS011;48717;55.556;37.816;2022-08-01T15:03:13;6.18;;;3.17;;
62654;SDS011;48717;55.556;37.816;2022-08-01T15:05:40;7.30;;;2.70;;
62654;SDS011;48717;55.556;37.816;2022-08-01T15:08:07;6.47;;;2.80;;
62654;SDS011;48717;55.556;37.816;2022-08-01T15:10:34;5.30;;;3.03;;
62654;SDS011;48717;55.556;37.816;2022-08-01T15:13:01;8.20;;;3.13;;
62654;SDS011;48717;55.556;37.816;2022-08-01T15:15:28;6.70;;;3.65;;
62654;SDS011;48717;55.556;37.816;2022-08-01T15:17:56;11.80;;;2.38;;
62654;SDS011;48717;55.556;37.816;2022-08-01T15:20:23;10.32;;;2.75;;
62654;SDS011;48717;55.556;37.816;2022-08-01T15:22:51;10.10;;;3.33;;
62654;SDS011;48717;55.556;37.816;2022-08-01T15:25:19;12.07;;;3.40;;
62654;SDS011;48717;55.556;37.816;2022-08-01T15:27:46;8.48;;;2.67;;
62654;SDS011;48717;55.556;37.816;2022-08-01T15:30:14;11.48;;;5.82;;
62654;SDS011;48717;55.556;37.816;2022-08-01T15:32:41;7.97;;;3.25;;
62654;SDS011;48717;55.556;37.816;2022-08-01T15:35:08;23.27;;;13.02;;
62654;SDS011;48717;55.556;37.816;2022-08-01T15:37:36;8.73;;;3.97;;
62654;SDS011;48717;55.556;37.816;2022-08-01T15:40:09;8.93;;;3.42;;
62654;SDS011;48717;55.556;37.816;2022-08-01T15:42:38;4.88;;;2.97;;
62654;SDS011;48717;55.556;37.816;2022-08-01T15:45:06;12.77;;;5.40;;
62654;SDS011;48717;55.556;37.816;2022-08-01T15:47:46;7.20;;;3.83;;
62654;SDS011;48717;55.556;37.816;2022-08-01T15:50:13;4.53;;;3.65;;
62654;SDS011;48717;55.556;37.816;2022-08-01T15:52:40;9.40;;;3.40;;
62654;SDS011;48717;55.556;37.816;2022-08-01T15:55:07;5.90;;;3.00;;
62654;SDS011;48717;55.556;37.816;2022-08-01T15:57:35;9.52;;;3.88;;
62654;SDS011;48717;55.556;37.816;2022-08-01T16:00:03;7.70;;;3.30;;
62654;SDS011;48717;55.556;37.816;2022-08-01T16:02:37;7.07;;;4.20;;
62654;SDS011;48717;55.556;37.816;2022-08-01T16:05:04;8.95;;;3.17;;
62654;SDS011;48717;55.556;37.816;2022-08-01T16:07:32;7.13;;;3.00;;